Flight Track Log - Related Links

Times and Time Zones

All times are in EDT time to prevent confusion due to time zone crossing. See the N775NC flight status page for this flight to view local times or setup timezone preferences in your user account.

Time Position Orientation Groundspeed Altitude Reporting Facility
EDT Latitude Longitude Course Direction KTS MPH feet Rate Location/Type
Sun 02:01:06 PM 33.6167 -84.3667 90° East 221 254 3,100  Level Atlanta TRACON
Sun 02:02:06 PM 33.6000 -84.2833 103° East 279 321 5,700 2,650 Climbing Atlanta TRACON
Sun 02:03:00 PM 33.6183 -83.9087 92° East  Level FlightAware Approximate
Sun 02:03:06 PM 33.5833 -84.1833 101° East 301 346 8,400  Level Atlanta TRACON
Sun 02:03:48 PM 33.5875 -84.1161 86° East 335 386 10,100 2,706 Climbing Atlanta Center
Sun 02:04:00 PM 33.6345 -83.7803 90° East  Level Estimated
Sun 02:04:48 PM 33.6022 -84.0114 80° East 330 380 13,000  Level Atlanta Center
Sun 02:05:00 PM 33.6505 -83.6518 85° East  Level Estimated
Sun 02:05:48 PM 33.6125 -83.9042 83° East 330 380 15,200  Level Atlanta Center
Sun 02:06:00 PM 33.6505 -83.5219 90° East  Level FlightAware Approximate
Sun 02:06:48 PM 33.6186 -83.7819 87° East 346 398 16,300  Level Atlanta Center
Sun 02:07:48 PM 33.6244 -83.6422 87° East 394 453 17,400 1,400 Climbing Atlanta Center
Sun 02:08:48 PM 33.6344 -83.5025 85° East 420 483 19,100 1,400 Climbing Atlanta Center
Sun 02:09:48 PM 33.6503 -83.3525 83° East 445 512 20,200 1,450 Climbing Atlanta Center
Sun 02:10:48 PM 33.6681 -83.1878 83° East 450 518 22,000 1,400 Climbing Atlanta Center
Sun 02:11:48 PM 33.6878 -83.0353 81° East 461 531 23,000 500 Climbing Atlanta Center
Sun 02:12:48 PM 33.7072 -82.8675 82° East 482 555 23,000  Level Atlanta Center
Sun 02:13:48 PM 33.7222 -82.7025 84° East 496 571 23,000  Level Atlanta Center
Sun 02:14:48 PM 33.7494 -82.5347 79° East 506 582 23,000  Level Atlanta Center
Sun 02:15:48 PM 33.7706 -82.3744 81° East 493 567 23,000 -1,486 Level Atlanta Center
Sun 02:18:18 PM 33.8208 -81.9975 81° East 472 543 17,800 -2,686 Descending Jacksonville Center
Sun 02:19:18 PM 33.8425 -81.8500 80° East 459 528 13,600 -3,950 Descending Jacksonville Center
Sun 02:20:18 PM 33.8664 -81.7144 78° East 435 501 9,900 -1,850 Descending Jacksonville Center
Sun 02:21:18 PM 33.8842 -81.6017 79° East 391 450 9,900 -800 Level Jacksonville Center
Sun 02:22:18 PM 33.9081 -81.5039 74° East 335 386 8,300 -1,600 Descending Jacksonville Center
Sun 02:23:18 PM 33.9742 -81.4553 31° Northeast 275 316 6,700 -1,767 Descending Jacksonville Center
Sun 02:25:18 PM 33.9808 -81.3047 87° East 217 250 3,000 -1,600 Descending Jacksonville Center
Sun 02:26:18 PM 33.9675 -81.2400 104° East 212 244 1,900 -1,100 Descending Jacksonville Center

Login

Don't have an account? Register now (free) for customized features, flight alerts, and more!